sensor_id;sensor_type;location;lat;lon;timestamp;P1;durP1;ratioP1;P2;durP2;ratioP2
75246;SDS011;63844;50.042;19.224;2023-08-21T00:00:11;16.90;;;12.30;;
75246;SDS011;63844;50.042;19.224;2023-08-21T00:01:48;17.30;;;12.70;;
75246;SDS011;63844;50.042;19.224;2023-08-21T00:03:25;16.90;;;12.30;;
75246;SDS011;63844;50.042;19.224;2023-08-21T00:05:01;12.90;;;11.00;;
75246;SDS011;63844;50.042;19.224;2023-08-21T00:06:36;16.30;;;12.20;;
75246;SDS011;63844;50.042;19.224;2023-08-21T00:08:12;14.30;;;11.80;;
75246;SDS011;63844;50.042;19.224;2023-08-21T00:09:47;16.20;;;12.50;;
75246;SDS011;63844;50.042;19.224;2023-08-21T00:11:22;14.00;;;11.70;;
75246;SDS011;63844;50.042;19.224;2023-08-21T00:12:58;14.30;;;12.20;;
75246;SDS011;63844;50.042;19.224;2023-08-21T00:14:33;15.20;;;12.90;;
75246;SDS011;63844;50.042;19.224;2023-08-21T00:16:09;14.30;;;12.60;;
75246;SDS011;63844;50.042;19.224;2023-08-21T00:17:44;15.00;;;12.40;;
75246;SDS011;63844;50.042;19.224;2023-08-21T00:19:22;14.20;;;11.50;;
75246;SDS011;63844;50.042;19.224;2023-08-21T00:20:58;14.40;;;11.60;;
75246;SDS011;63844;50.042;19.224;2023-08-21T00:22:33;15.70;;;11.90;;
75246;SDS011;63844;50.042;19.224;2023-08-21T00:24:08;14.10;;;12.60;;
75246;SDS011;63844;50.042;19.224;2023-08-21T00:25:47;16.80;;;13.00;;
75246;SDS011;63844;50.042;19.224;2023-08-21T00:27:23;14.20;;;11.90;;
75246;SDS011;63844;50.042;19.224;2023-08-21T00:28:58;17.30;;;13.10;;
75246;SDS011;63844;50.042;19.224;2023-08-21T00:30:33;15.10;;;12.60;;
75246;SDS011;63844;50.042;19.224;2023-08-21T00:32:09;16.10;;;12.50;;
75246;SDS011;63844;50.042;19.224;2023-08-21T00:33:44;17.70;;;12.90;;
75246;SDS011;63844;50.042;19.224;2023-08-21T00:35:21;15.50;;;12.50;;
75246;SDS011;63844;50.042;19.224;2023-08-21T00:36:56;16.40;;;13.00;;
75246;SDS011;63844;50.042;19.224;2023-08-21T00:38:31;15.10;;;13.40;;
75246;SDS011;63844;50.042;19.224;2023-08-21T00:40:07;16.20;;;13.30;;
75246;SDS011;63844;50.042;19.224;2023-08-21T00:41:42;16.80;;;13.00;;
75246;SDS011;63844;50.042;19.224;2023-08-21T00:43:19;14.80;;;12.70;;
75246;SDS011;63844;50.042;19.224;2023-08-21T00:44:55;16.00;;;13.50;;
75246;SDS011;63844;50.042;19.224;2023-08-21T00:46:31;16.20;;;13.10;;
75246;SDS011;63844;50.042;19.224;2023-08-21T00:48:07;17.90;;;12.80;;
75246;SDS011;63844;50.042;19.224;2023-08-21T00:49:42;15.80;;;13.20;;
75246;SDS011;63844;50.042;19.224;2023-08-21T00:51:18;18.50;;;13.40;;
75246;SDS011;63844;50.042;19.224;2023-08-21T00:52:54;14.90;;;12.70;;
75246;SDS011;63844;50.042;19.224;2023-08-21T00:54:29;18.10;;;12.80;;
75246;SDS011;63844;50.042;19.224;2023-08-21T00:56:05;13.80;;;11.80;;
75246;SDS011;63844;50.042;19.224;2023-08-21T00:57:43;16.40;;;12.20;;
75246;SDS011;63844;50.042;19.224;2023-08-21T00:59:19;17.20;;;13.00;;
75246;SDS011;63844;50.042;19.224;2023-08-21T01:00:55;16.20;;;12.00;;
75246;SDS011;63844;50.042;19.224;2023-08-21T01:02:33;15.20;;;12.00;;
75246;SDS011;63844;50.042;19.224;2023-08-21T01:04:08;15.40;;;11.90;;
75246;SDS011;63844;50.042;19.224;2023-08-21T01:05:44;17.50;;;12.30;;
75246;SDS011;63844;50.042;19.224;2023-08-21T01:07:20;21.70;;;12.30;;
75246;SDS011;63844;50.042;19.224;2023-08-21T01:09:03;14.10;;;11.80;;
75246;SDS011;63844;50.042;19.224;2023-08-21T01:12:24;14.20;;;12.30;;
75246;SDS011;63844;50.042;19.224;2023-08-21T01:14:27;15.90;;;12.90;;
75246;SDS011;63844;50.042;19.224;2023-08-21T01:16:06;17.00;;;11.70;;
75246;SDS011;63844;50.042;19.224;2023-08-21T01:17:43;15.30;;;12.20;;
75246;SDS011;63844;50.042;19.224;2023-08-21T01:19:24;14.00;;;12.10;;
75246;SDS011;63844;50.042;19.224;2023-08-21T01:21:12;14.60;;;11.70;;
75246;SDS011;63844;50.042;19.224;2023-08-21T01:22:47;15.70;;;12.40;;
75246;SDS011;63844;50.042;19.224;2023-08-21T01:24:24;18.10;;;12.10;;
75246;SDS011;63844;50.042;19.224;2023-08-21T01:25:59;17.50;;;12.10;;
75246;SDS011;63844;50.042;19.224;2023-08-21T01:27:35;17.00;;;12.40;;
75246;SDS011;63844;50.042;19.224;2023-08-21T01:29:13;16.70;;;12.70;;
75246;SDS011;63844;50.042;19.224;2023-08-21T01:30:49;15.60;;;12.20;;
75246;SDS011;63844;50.042;19.224;2023-08-21T01:34:25;16.10;;;12.20;;
75246;SDS011;63844;50.042;19.224;2023-08-21T01:36:03;15.60;;;12.40;;
75246;SDS011;63844;50.042;19.224;2023-08-21T01:37:39;14.80;;;11.70;;
75246;SDS011;63844;50.042;19.224;2023-08-21T01:39:17;15.70;;;12.30;;
75246;SDS011;63844;50.042;19.224;2023-08-21T01:40:53;17.10;;;12.90;;
75246;SDS011;63844;50.042;19.224;2023-08-21T01:42:28;15.40;;;12.20;;
75246;SDS011;63844;50.042;19.224;2023-08-21T01:44:03;17.40;;;12.50;;
75246;SDS011;63844;50.042;19.224;2023-08-21T01:45:39;16.00;;;12.90;;
75246;SDS011;63844;50.042;19.224;2023-08-21T01:47:14;16.70;;;12.40;;
75246;SDS011;63844;50.042;19.224;2023-08-21T01:48:49;14.30;;;11.30;;
75246;SDS011;63844;50.042;19.224;2023-08-21T01:50:25;15.50;;;12.40;;
75246;SDS011;63844;50.042;19.224;2023-08-21T01:52:00;15.00;;;10.90;;
75246;SDS011;63844;50.042;19.224;2023-08-21T01:53:37;15.90;;;12.50;;
75246;SDS011;63844;50.042;19.224;2023-08-21T01:55:12;17.60;;;12.90;;
75246;SDS011;63844;50.042;19.224;2023-08-21T01:56:47;19.60;;;12.60;;
75246;SDS011;63844;50.042;19.224;2023-08-21T01:58:23;18.10;;;12.70;;
75246;SDS011;63844;50.042;19.224;2023-08-21T01:59:58;15.80;;;11.40;;
75246;SDS011;63844;50.042;19.224;2023-08-21T02:01:33;15.00;;;11.80;;
75246;SDS011;63844;50.042;19.224;2023-08-21T02:03:09;15.60;;;11.10;;
75246;SDS011;63844;50.042;19.224;2023-08-21T02:04:44;16.10;;;12.10;;
75246;SDS011;63844;50.042;19.224;2023-08-21T02:06:19;15.50;;;11.60;;
75246;SDS011;63844;50.042;19.224;2023-08-21T02:07:54;16.30;;;11.80;;
75246;SDS011;63844;50.042;19.224;2023-08-21T02:09:30;17.10;;;12.30;;
75246;SDS011;63844;50.042;19.224;2023-08-21T02:11:05;13.60;;;11.40;;
75246;SDS011;63844;50.042;19.224;2023-08-21T02:12:41;16.00;;;11.90;;
75246;SDS011;63844;50.042;19.224;2023-08-21T02:14:16;16.00;;;12.30;;
75246;SDS011;63844;50.042;19.224;2023-08-21T02:15:52;13.70;;;11.50;;
75246;SDS011;63844;50.042;19.224;2023-08-21T02:17:27;14.80;;;11.90;;
75246;SDS011;63844;50.042;19.224;2023-08-21T02:19:03;15.00;;;12.30;;
75246;SDS011;63844;50.042;19.224;2023-08-21T02:20:38;19.40;;;11.70;;
75246;SDS011;63844;50.042;19.224;2023-08-21T02:22:13;18.60;;;13.20;;
75246;SDS011;63844;50.042;19.224;2023-08-21T02:23:48;15.40;;;12.10;;
75246;SDS011;63844;50.042;19.224;2023-08-21T02:25:24;15.20;;;12.70;;
75246;SDS011;63844;50.042;19.224;2023-08-21T02:27:00;17.40;;;13.60;;
75246;SDS011;63844;50.042;19.224;2023-08-21T02:28:36;14.50;;;12.50;;
75246;SDS011;63844;50.042;19.224;2023-08-21T02:30:11;17.90;;;13.10;;
75246;SDS011;63844;50.042;19.224;2023-08-21T02:31:47;17.70;;;15.30;;
75246;SDS011;63844;50.042;19.224;2023-08-21T02:33:22;16.30;;;13.60;;
75246;SDS011;63844;50.042;19.224;2023-08-21T02:34:57;17.90;;;14.80;;
75246;SDS011;63844;50.042;19.224;2023-08-21T02:36:34;17.00;;;12.40;;
75246;SDS011;63844;50.042;19.224;2023-08-21T02:38:10;17.20;;;13.40;;
75246;SDS011;63844;50.042;19.224;2023-08-21T02:39:45;20.90;;;13.90;;
75246;SDS011;63844;50.042;19.224;2023-08-21T02:41:20;17.30;;;13.30;;
75246;SDS011;63844;50.042;19.224;2023-08-21T02:42:56;17.10;;;13.10;;
75246;SDS011;63844;50.042;19.224;2023-08-21T02:44:32;17.00;;;13.60;;
75246;SDS011;63844;50.042;19.224;2023-08-21T02:46:07;15.70;;;12.60;;
75246;SDS011;63844;50.042;19.224;2023-08-21T02:47:43;17.30;;;13.50;;
75246;SDS011;63844;50.042;19.224;2023-08-21T02:49:19;16.00;;;12.40;;
75246;SDS011;63844;50.042;19.224;2023-08-21T02:50:54;18.20;;;12.50;;
75246;SDS011;63844;50.042;19.224;2023-08-21T02:52:29;16.80;;;14.20;;
75246;SDS011;63844;50.042;19.224;2023-08-21T02:54:05;18.10;;;13.20;;
75246;SDS011;63844;50.042;19.224;2023-08-21T02:55:40;18.10;;;14.00;;
75246;SDS011;63844;50.042;19.224;2023-08-21T02:57:16;18.10;;;13.60;;
75246;SDS011;63844;50.042;19.224;2023-08-21T02:58:51;19.60;;;13.80;;
75246;SDS011;63844;50.042;19.224;2023-08-21T03:00:26;17.20;;;13.20;;
75246;SDS011;63844;50.042;19.224;2023-08-21T03:02:02;18.20;;;13.50;;
75246;SDS011;63844;50.042;19.224;2023-08-21T03:03:37;19.20;;;14.70;;
75246;SDS011;63844;50.042;19.224;2023-08-21T03:05:12;15.90;;;12.40;;
75246;SDS011;63844;50.042;19.224;2023-08-21T03:06:49;19.30;;;14.10;;
75246;SDS011;63844;50.042;19.224;2023-08-21T03:08:25;18.00;;;13.30;;
75246;SDS011;63844;50.042;19.224;2023-08-21T03:10:00;17.70;;;12.90;;
75246;SDS011;63844;50.042;19.224;2023-08-21T03:11:37;18.80;;;13.60;;
75246;SDS011;63844;50.042;19.224;2023-08-21T03:13:12;20.00;;;14.30;;
75246;SDS011;63844;50.042;19.224;2023-08-21T03:14:48;18.40;;;14.20;;
75246;SDS011;63844;50.042;19.224;2023-08-21T03:16:23;18.30;;;13.70;;
75246;SDS011;63844;50.042;19.224;2023-08-21T03:17:58;18.00;;;13.70;;
75246;SDS011;63844;50.042;19.224;2023-08-21T03:19:35;17.20;;;13.60;;
75246;SDS011;63844;50.042;19.224;2023-08-21T03:21:10;19.80;;;13.40;;
75246;SDS011;63844;50.042;19.224;2023-08-21T03:22:46;20.60;;;13.90;;
75246;SDS011;63844;50.042;19.224;2023-08-21T03:24:21;18.30;;;14.30;;
75246;SDS011;63844;50.042;19.224;2023-08-21T03:25:57;20.40;;;14.00;;
75246;SDS011;63844;50.042;19.224;2023-08-21T03:27:32;18.50;;;13.40;;
75246;SDS011;63844;50.042;19.224;2023-08-21T03:29:08;16.60;;;13.50;;
75246;SDS011;63844;50.042;19.224;2023-08-21T03:30:44;18.30;;;13.70;;
75246;SDS011;63844;50.042;19.224;2023-08-21T03:32:19;19.70;;;14.30;;
75246;SDS011;63844;50.042;19.224;2023-08-21T03:33:54;18.40;;;14.80;;
75246;SDS011;63844;50.042;19.224;2023-08-21T03:35:30;20.40;;;14.50;;
75246;SDS011;63844;50.042;19.224;2023-08-21T03:37:05;17.60;;;13.40;;
75246;SDS011;63844;50.042;19.224;2023-08-21T03:38:40;18.40;;;13.50;;
75246;SDS011;63844;50.042;19.224;2023-08-21T03:40:16;18.40;;;12.30;;
75246;SDS011;63844;50.042;19.224;2023-08-21T03:41:51;17.90;;;14.00;;
75246;SDS011;63844;50.042;19.224;2023-08-21T03:43:27;18.50;;;13.90;;
75246;SDS011;63844;50.042;19.224;2023-08-21T03:45:03;19.70;;;14.50;;
75246;SDS011;63844;50.042;19.224;2023-08-21T03:46:40;17.90;;;14.30;;
75246;SDS011;63844;50.042;19.224;2023-08-21T03:48:15;17.00;;;13.50;;
75246;SDS011;63844;50.042;19.224;2023-08-21T03:49:50;18.20;;;14.80;;
75246;SDS011;63844;50.042;19.224;2023-08-21T03:51:26;22.50;;;14.60;;
75246;SDS011;63844;50.042;19.224;2023-08-21T03:53:01;17.90;;;13.10;;
75246;SDS011;63844;50.042;19.224;2023-08-21T03:54:37;18.50;;;13.90;;
75246;SDS011;63844;50.042;19.224;2023-08-21T03:56:12;18.00;;;13.90;;
75246;SDS011;63844;50.042;19.224;2023-08-21T03:57:47;21.20;;;14.10;;
75246;SDS011;63844;50.042;19.224;2023-08-21T03:59:22;16.60;;;13.30;;
75246;SDS011;63844;50.042;19.224;2023-08-21T04:00:58;16.80;;;13.40;;
75246;SDS011;63844;50.042;19.224;2023-08-21T04:02:34;17.00;;;13.50;;
75246;SDS011;63844;50.042;19.224;2023-08-21T04:04:09;16.30;;;13.60;;
75246;SDS011;63844;50.042;19.224;2023-08-21T04:05:45;17.90;;;14.30;;
75246;SDS011;63844;50.042;19.224;2023-08-21T04:07:20;18.10;;;14.20;;
75246;SDS011;63844;50.042;19.224;2023-08-21T04:08:55;17.40;;;13.90;;
75246;SDS011;63844;50.042;19.224;2023-08-21T04:10:31;18.20;;;14.20;;
75246;SDS011;63844;50.042;19.224;2023-08-21T04:12:06;18.80;;;14.30;;
75246;SDS011;63844;50.042;19.224;2023-08-21T04:15:17;19.60;;;14.00;;
75246;SDS011;63844;50.042;19.224;2023-08-21T04:16:52;17.50;;;14.60;;
75246;SDS011;63844;50.042;19.224;2023-08-21T04:18:27;16.90;;;13.60;;
75246;SDS011;63844;50.042;19.224;2023-08-21T04:20:03;18.20;;;14.90;;
75246;SDS011;63844;50.042;19.224;2023-08-21T04:23:14;18.00;;;13.00;;
75246;SDS011;63844;50.042;19.224;2023-08-21T04:24:49;18.10;;;14.00;;
75246;SDS011;63844;50.042;19.224;2023-08-21T04:26:24;19.20;;;14.30;;
75246;SDS011;63844;50.042;19.224;2023-08-21T04:28:00;18.20;;;14.60;;
75246;SDS011;63844;50.042;19.224;2023-08-21T04:29:35;18.40;;;14.30;;
75246;SDS011;63844;50.042;19.224;2023-08-21T04:32:47;17.10;;;13.80;;
75246;SDS011;63844;50.042;19.224;2023-08-21T04:34:23;17.00;;;13.70;;
75246;SDS011;63844;50.042;19.224;2023-08-21T04:35:58;17.20;;;13.80;;
75246;SDS011;63844;50.042;19.224;2023-08-21T04:37:34;19.30;;;14.00;;
75246;SDS011;63844;50.042;19.224;2023-08-21T04:39:09;16.90;;;14.10;;
75246;SDS011;63844;50.042;19.224;2023-08-21T04:40:45;17.50;;;14.20;;
75246;SDS011;63844;50.042;19.224;2023-08-21T04:42:20;17.90;;;14.90;;
75246;SDS011;63844;50.042;19.224;2023-08-21T04:43:56;18.90;;;15.80;;
75246;SDS011;63844;50.042;19.224;2023-08-21T04:45:31;19.80;;;14.30;;
75246;SDS011;63844;50.042;19.224;2023-08-21T04:47:22;16.50;;;13.50;;
75246;SDS011;63844;50.042;19.224;2023-08-21T04:49:01;16.40;;;13.80;;
75246;SDS011;63844;50.042;19.224;2023-08-21T04:50:37;16.50;;;13.80;;
75246;SDS011;63844;50.042;19.224;2023-08-21T04:52:12;19.00;;;13.90;;
75246;SDS011;63844;50.042;19.224;2023-08-21T04:53:47;15.60;;;13.30;;
75246;SDS011;63844;50.042;19.224;2023-08-21T04:55:23;19.10;;;14.30;;
75246;SDS011;63844;50.042;19.224;2023-08-21T04:56:59;16.60;;;13.10;;
75246;SDS011;63844;50.042;19.224;2023-08-21T04:58:34;16.50;;;14.40;;
75246;SDS011;63844;50.042;19.224;2023-08-21T05:00:09;17.30;;;14.50;;
75246;SDS011;63844;50.042;19.224;2023-08-21T05:03:20;17.40;;;13.40;;
75246;SDS011;63844;50.042;19.224;2023-08-21T05:04:56;17.40;;;12.90;;
75246;SDS011;63844;50.042;19.224;2023-08-21T05:06:31;19.00;;;13.80;;
75246;SDS011;63844;50.042;19.224;2023-08-21T05:08:06;18.90;;;13.60;;
75246;SDS011;63844;50.042;19.224;2023-08-21T05:09:42;15.90;;;14.20;;
75246;SDS011;63844;50.042;19.224;2023-08-21T05:11:17;18.30;;;14.50;;
75246;SDS011;63844;50.042;19.224;2023-08-21T05:12:52;15.10;;;13.20;;
75246;SDS011;63844;50.042;19.224;2023-08-21T05:14:27;25.70;;;14.80;;
75246;SDS011;63844;50.042;19.224;2023-08-21T05:16:03;16.00;;;13.20;;
75246;SDS011;63844;50.042;19.224;2023-08-21T05:17:38;15.70;;;12.80;;
75246;SDS011;63844;50.042;19.224;2023-08-21T05:19:14;17.60;;;13.20;;
75246;SDS011;63844;50.042;19.224;2023-08-21T05:20:49;15.40;;;13.30;;
75246;SDS011;63844;50.042;19.224;2023-08-21T05:22:26;17.10;;;13.60;;
75246;SDS011;63844;50.042;19.224;2023-08-21T05:24:01;19.50;;;14.90;;
75246;SDS011;63844;50.042;19.224;2023-08-21T05:25:37;20.70;;;14.30;;
75246;SDS011;63844;50.042;19.224;2023-08-21T05:27:12;17.50;;;13.80;;
75246;SDS011;63844;50.042;19.224;2023-08-21T05:28:47;14.70;;;12.20;;
75246;SDS011;63844;50.042;19.224;2023-08-21T05:30:23;15.80;;;13.40;;
75246;SDS011;63844;50.042;19.224;2023-08-21T05:31:58;16.20;;;14.10;;
75246;SDS011;63844;50.042;19.224;2023-08-21T05:33:33;18.30;;;14.20;;
75246;SDS011;63844;50.042;19.224;2023-08-21T05:35:09;18.20;;;13.60;;
75246;SDS011;63844;50.042;19.224;2023-08-21T05:36:44;17.20;;;14.10;;
75246;SDS011;63844;50.042;19.224;2023-08-21T05:38:20;15.00;;;13.40;;
75246;SDS011;63844;50.042;19.224;2023-08-21T05:39:55;15.30;;;13.70;;
75246;SDS011;63844;50.042;19.224;2023-08-21T05:41:31;17.80;;;14.40;;
75246;SDS011;63844;50.042;19.224;2023-08-21T05:43:08;17.30;;;14.10;;
75246;SDS011;63844;50.042;19.224;2023-08-21T05:44:43;18.30;;;13.80;;
75246;SDS011;63844;50.042;19.224;2023-08-21T05:46:19;15.70;;;14.10;;
75246;SDS011;63844;50.042;19.224;2023-08-21T05:47:56;15.10;;;13.50;;
75246;SDS011;63844;50.042;19.224;2023-08-21T05:49:31;15.50;;;13.80;;
75246;SDS011;63844;50.042;19.224;2023-08-21T05:51:06;15.70;;;12.90;;
75246;SDS011;63844;50.042;19.224;2023-08-21T05:52:42;15.90;;;12.20;;
75246;SDS011;63844;50.042;19.224;2023-08-21T05:54:17;17.30;;;13.60;;
75246;SDS011;63844;50.042;19.224;2023-08-21T05:55:53;16.10;;;13.60;;
75246;SDS011;63844;50.042;19.224;2023-08-21T05:57:29;16.50;;;13.70;;
75246;SDS011;63844;50.042;19.224;2023-08-21T05:59:04;15.70;;;13.60;;
75246;SDS011;63844;50.042;19.224;2023-08-21T06:00:39;15.90;;;13.90;;
75246;SDS011;63844;50.042;19.224;2023-08-21T06:02:17;15.10;;;13.30;;
75246;SDS011;63844;50.042;19.224;2023-08-21T06:03:52;15.50;;;14.00;;
75246;SDS011;63844;50.042;19.224;2023-08-21T06:05:28;16.10;;;14.60;;
75246;SDS011;63844;50.042;19.224;2023-08-21T06:07:03;14.90;;;13.60;;
75246;SDS011;63844;50.042;19.224;2023-08-21T06:08:39;15.70;;;14.30;;
75246;SDS011;63844;50.042;19.224;2023-08-21T06:10:14;15.80;;;14.30;;
75246;SDS011;63844;50.042;19.224;2023-08-21T06:11:50;16.70;;;15.20;;
75246;SDS011;63844;50.042;19.224;2023-08-21T06:13:25;18.70;;;17.20;;
75246;SDS011;63844;50.042;19.224;2023-08-21T06:15:02;17.20;;;15.60;;
75246;SDS011;63844;50.042;19.224;2023-08-21T06:16:37;19.40;;;17.70;;
75246;SDS011;63844;50.042;19.224;2023-08-21T06:19:49;18.30;;;16.80;;
75246;SDS011;63844;50.042;19.224;2023-08-21T06:21:25;17.70;;;16.10;;
75246;SDS011;63844;50.042;19.224;2023-08-21T06:24:36;16.80;;;15.40;;
75246;SDS011;63844;50.042;19.224;2023-08-21T06:27:46;20.00;;;18.50;;
75246;SDS011;63844;50.042;19.224;2023-08-21T06:29:22;19.70;;;18.10;;
75246;SDS011;63844;50.042;19.224;2023-08-21T06:30:57;21.40;;;19.80;;
75246;SDS011;63844;50.042;19.224;2023-08-21T06:32:33;21.30;;;19.70;;
75246;SDS011;63844;50.042;19.224;2023-08-21T06:35:43;18.30;;;16.80;;
75246;SDS011;63844;50.042;19.224;2023-08-21T06:38:55;17.70;;;15.90;;
75246;SDS011;63844;50.042;19.224;2023-08-21T06:40:30;20.00;;;18.50;;
75246;SDS011;63844;50.042;19.224;2023-08-21T06:42:06;18.70;;;17.20;;
75246;SDS011;63844;50.042;19.224;2023-08-21T06:45:17;17.10;;;14.90;;
75246;SDS011;63844;50.042;19.224;2023-08-21T06:46:52;16.70;;;15.20;;
75246;SDS011;63844;50.042;19.224;2023-08-21T06:48:28;16.40;;;15.10;;
75246;SDS011;63844;50.042;19.224;2023-08-21T06:50:04;15.60;;;14.30;;
75246;SDS011;63844;50.042;19.224;2023-08-21T06:51:40;17.70;;;16.20;;
75246;SDS011;63844;50.042;19.224;2023-08-21T06:54:50;15.60;;;14.40;;
75246;SDS011;63844;50.042;19.224;2023-08-21T06:58:01;14.70;;;13.50;;
75246;SDS011;63844;50.042;19.224;2023-08-21T06:59:37;15.70;;;14.20;;
75246;SDS011;63844;50.042;19.224;2023-08-21T07:01:13;15.50;;;14.00;;
75246;SDS011;63844;50.042;19.224;2023-08-21T07:04:23;14.20;;;12.90;;
75246;SDS011;63844;50.042;19.224;2023-08-21T07:05:59;14.30;;;13.00;;
75246;SDS011;63844;50.042;19.224;2023-08-21T07:07:35;16.10;;;14.80;;
75246;SDS011;63844;50.042;19.224;2023-08-21T07:09:10;17.50;;;15.70;;
75246;SDS011;63844;50.042;19.224;2023-08-21T07:10:46;15.00;;;13.70;;
75246;SDS011;63844;50.042;19.224;2023-08-21T07:12:21;14.20;;;12.90;;
75246;SDS011;63844;50.042;19.224;2023-08-21T07:13:57;14.10;;;12.90;;
75246;SDS011;63844;50.042;19.224;2023-08-21T07:15:34;13.80;;;12.40;;
75246;SDS011;63844;50.042;19.224;2023-08-21T07:17:09;14.30;;;13.00;;
75246;SDS011;63844;50.042;19.224;2023-08-21T07:18:44;14.70;;;13.20;;
75246;SDS011;63844;50.042;19.224;2023-08-21T07:20:21;14.90;;;13.60;;
75246;SDS011;63844;50.042;19.224;2023-08-21T07:21:57;14.10;;;12.70;;
75246;SDS011;63844;50.042;19.224;2023-08-21T07:23:32;15.00;;;13.60;;
75246;SDS011;63844;50.042;19.224;2023-08-21T07:25:09;14.20;;;12.60;;
75246;SDS011;63844;50.042;19.224;2023-08-21T07:26:44;19.10;;;17.50;;
75246;SDS011;63844;50.042;19.224;2023-08-21T07:29:55;13.00;;;11.60;;
75246;SDS011;63844;50.042;19.224;2023-08-21T07:31:30;13.10;;;11.90;;
75246;SDS011;63844;50.042;19.224;2023-08-21T07:33:07;12.90;;;11.70;;
75246;SDS011;63844;50.042;19.224;2023-08-21T07:34:44;13.00;;;11.90;;
75246;SDS011;63844;50.042;19.224;2023-08-21T07:36:20;13.00;;;11.70;;
75246;SDS011;63844;50.042;19.224;2023-08-21T07:37:56;14.00;;;11.90;;
75246;SDS011;63844;50.042;19.224;2023-08-21T07:39:32;13.40;;;12.10;;
75246;SDS011;63844;50.042;19.224;2023-08-21T07:41:10;13.00;;;11.50;;
75246;SDS011;63844;50.042;19.224;2023-08-21T07:42:48;13.70;;;12.30;;
75246;SDS011;63844;50.042;19.224;2023-08-21T07:44:24;14.00;;;12.50;;
75246;SDS011;63844;50.042;19.224;2023-08-21T07:46:05;15.50;;;13.40;;
75246;SDS011;63844;50.042;19.224;2023-08-21T07:47:41;14.10;;;12.50;;
75246;SDS011;63844;50.042;19.224;2023-08-21T07:49:19;15.30;;;13.80;;
75246;SDS011;63844;50.042;19.224;2023-08-21T07:50:54;13.70;;;12.00;;
75246;SDS011;63844;50.042;19.224;2023-08-21T07:52:29;13.80;;;12.30;;
75246;SDS011;63844;50.042;19.224;2023-08-21T07:54:05;13.00;;;11.60;;
75246;SDS011;63844;50.042;19.224;2023-08-21T07:55:42;16.30;;;12.30;;
75246;SDS011;63844;50.042;19.224;2023-08-21T07:57:17;14.90;;;13.40;;
75246;SDS011;63844;50.042;19.224;2023-08-21T08:00:28;13.70;;;12.20;;
75246;SDS011;63844;50.042;19.224;2023-08-21T08:02:05;12.80;;;11.50;;
75246;SDS011;63844;50.042;19.224;2023-08-21T08:03:40;13.90;;;12.50;;
75246;SDS011;63844;50.042;19.224;2023-08-21T08:05:16;15.10;;;12.40;;
75246;SDS011;63844;50.042;19.224;2023-08-21T08:06:51;13.00;;;11.70;;
75246;SDS011;63844;50.042;19.224;2023-08-21T08:08:26;11.90;;;10.80;;
75246;SDS011;63844;50.042;19.224;2023-08-21T08:10:02;12.20;;;11.00;;
75246;SDS011;63844;50.042;19.224;2023-08-21T08:11:38;15.20;;;13.80;;
75246;SDS011;63844;50.042;19.224;2023-08-21T08:14:54;10.70;;;9.70;;
75246;SDS011;63844;50.042;19.224;2023-08-21T08:16:45;11.80;;;10.60;;
75246;SDS011;63844;50.042;19.224;2023-08-21T08:18:20;12.10;;;11.10;;
75246;SDS011;63844;50.042;19.224;2023-08-21T08:19:56;12.20;;;11.20;;
75246;SDS011;63844;50.042;19.224;2023-08-21T08:21:31;11.80;;;10.80;;
75246;SDS011;63844;50.042;19.224;2023-08-21T08:24:42;11.60;;;10.60;;
75246;SDS011;63844;50.042;19.224;2023-08-21T08:26:17;12.10;;;11.00;;
75246;SDS011;63844;50.042;19.224;2023-08-21T08:27:53;13.10;;;11.90;;
75246;SDS011;63844;50.042;19.224;2023-08-21T08:29:29;12.30;;;11.30;;
75246;SDS011;63844;50.042;19.224;2023-08-21T08:31:05;12.00;;;10.90;;
75246;SDS011;63844;50.042;19.224;2023-08-21T08:32:42;12.90;;;11.90;;
75246;SDS011;63844;50.042;19.224;2023-08-21T08:34:20;12.70;;;11.60;;
75246;SDS011;63844;50.042;19.224;2023-08-21T08:35:55;13.50;;;12.40;;
75246;SDS011;63844;50.042;19.224;2023-08-21T08:39:06;15.50;;;14.30;;
75246;SDS011;63844;50.042;19.224;2023-08-21T08:40:42;16.20;;;14.70;;
75246;SDS011;63844;50.042;19.224;2023-08-21T08:42:20;17.70;;;16.30;;
75246;SDS011;63844;50.042;19.224;2023-08-21T08:45:34;13.80;;;12.60;;
75246;SDS011;63844;50.042;19.224;2023-08-21T08:47:11;14.90;;;13.80;;
75246;SDS011;63844;50.042;19.224;2023-08-21T08:48:46;17.10;;;16.00;;
75246;SDS011;63844;50.042;19.224;2023-08-21T08:50:22;17.30;;;16.20;;
75246;SDS011;63844;50.042;19.224;2023-08-21T08:52:02;19.30;;;17.90;;
75246;SDS011;63844;50.042;19.224;2023-08-21T08:53:38;20.80;;;19.50;;
75246;SDS011;63844;50.042;19.224;2023-08-21T08:55:14;25.30;;;23.60;;
75246;SDS011;63844;50.042;19.224;2023-08-21T08:56:49;22.30;;;20.90;;
75246;SDS011;63844;50.042;19.224;2023-08-21T08:58:25;29.30;;;27.60;;
75246;SDS011;63844;50.042;19.224;2023-08-21T09:00:04;20.80;;;19.60;;
75246;SDS011;63844;50.042;19.224;2023-08-21T09:01:40;26.80;;;25.30;;
75246;SDS011;63844;50.042;19.224;2023-08-21T09:03:16;22.40;;;21.20;;
75246;SDS011;63844;50.042;19.224;2023-08-21T09:04:52;29.40;;;27.70;;
75246;SDS011;63844;50.042;19.224;2023-08-21T09:06:27;33.50;;;31.60;;
75246;SDS011;63844;50.042;19.224;2023-08-21T09:08:13;28.70;;;27.10;;
75246;SDS011;63844;50.042;19.224;2023-08-21T09:09:49;35.10;;;33.30;;
75246;SDS011;63844;50.042;19.224;2023-08-21T09:11:27;26.00;;;24.60;;
75246;SDS011;63844;50.042;19.224;2023-08-21T09:13:08;28.70;;;27.20;;
75246;SDS011;63844;50.042;19.224;2023-08-21T09:14:46;23.40;;;22.10;;
75246;SDS011;63844;50.042;19.224;2023-08-21T09:16:28;24.70;;;23.20;;
75246;SDS011;63844;50.042;19.224;2023-08-21T09:18:04;22.30;;;21.20;;
75246;SDS011;63844;50.042;19.224;2023-08-21T09:19:41;17.50;;;16.50;;
75246;SDS011;63844;50.042;19.224;2023-08-21T09:21:20;19.10;;;18.00;;
75246;SDS011;63844;50.042;19.224;2023-08-21T09:23:00;17.10;;;16.10;;
75246;SDS011;63844;50.042;19.224;2023-08-21T09:24:35;19.30;;;18.10;;
75246;SDS011;63844;50.042;19.224;2023-08-21T09:26:19;16.10;;;15.20;;
75246;SDS011;63844;50.042;19.224;2023-08-21T09:27:56;13.70;;;12.80;;
75246;SDS011;63844;50.042;19.224;2023-08-21T09:29:39;10.30;;;9.40;;
75246;SDS011;63844;50.042;19.224;2023-08-21T09:31:55;12.00;;;11.10;;
75246;SDS011;63844;50.042;19.224;2023-08-21T09:33:22;10.70;;;10.00;;
75246;SDS011;63844;50.042;19.224;2023-08-21T09:35:03;11.20;;;10.40;;
75246;SDS011;63844;50.042;19.224;2023-08-21T09:36:39;8.90;;;8.20;;
75246;SDS011;63844;50.042;19.224;2023-08-21T09:39:49;9.20;;;8.50;;
75246;SDS011;63844;50.042;19.224;2023-08-21T09:43:01;8.90;;;8.30;;
75246;SDS011;63844;50.042;19.224;2023-08-21T09:44:39;7.80;;;7.20;;
75246;SDS011;63844;50.042;19.224;2023-08-21T09:46:16;8.40;;;7.90;;
75246;SDS011;63844;50.042;19.224;2023-08-21T09:47:59;8.20;;;7.70;;
75246;SDS011;63844;50.042;19.224;2023-08-21T09:49:36;8.40;;;7.70;;
75246;SDS011;63844;50.042;19.224;2023-08-21T09:51:16;9.00;;;8.20;;